»·PEaware :: N851BN KGJT-KCEC

N851BN :: KGJT-KCEC

FLIGHT INFORMATION

Flight Status: Arrived
Operator: Privately registered:
United States
More flights under this callsign
Pilot: Drew L. (13237)
Aircraft: SOCATA TBM-900
(TBM9)
More flights by this aircraft type
Origin: KGJT Walker
United States
Destination: KCEC McNamara
United States
More flights between these airports :: More routes between these airports
Route: RHONE2 RHONE TCH SDO
File this flight plan on PilotEdge
Remarks: ROGER
Altitude:
(Current/Filed)
30,000ft
Speed:
(Current/Filed)
0kts
Departed: 28-Oct-18 04:26 PM
Arrived: 28-Oct-18 07:38 PM
Distance/Time
Traveled:
734nm/3:11
Distance/Time
To Go:
Arrived

Flight Plot

Page will automatically refresh every two minutes.

Flight plan parsing failed; only flown route is shown


Map Options




Map Legend


Flown Route
Filed Route
Departure Airport
Arrival Airport
Navaid (VOR, NDB)
Fix

Horizontal Profiles

Position Reports

Time Latitude Longitude Heading Altitude Ground
Speed
28-Oct-18 16:05 39.120355 -108.521900 36 4802ft 0kts
28-Oct-18 16:06 39.120355 -108.521900 36 4802ft 0kts
28-Oct-18 16:07 39.120355 -108.521900 36 4802ft 0kts
28-Oct-18 16:08 39.120355 -108.521900 36 4802ft 0kts
28-Oct-18 16:09 39.120355 -108.521900 36 4802ft 0kts
28-Oct-18 16:10 39.120355 -108.521900 36 4802ft 0kts
28-Oct-18 16:11 39.120355 -108.521900 36 4802ft 0kts
28-Oct-18 16:12 39.120355 -108.521900 36 4802ft 0kts
28-Oct-18 16:13 39.120355 -108.521900 36 4802ft 0kts
28-Oct-18 16:14 39.120355 -108.521900 36 4802ft 0kts
28-Oct-18 16:15 39.120355 -108.521900 36 4802ft 0kts
28-Oct-18 16:16 39.120355 -108.521900 36 4802ft 0kts
28-Oct-18 16:17 39.120355 -108.521900 36 4802ft 0kts
28-Oct-18 16:18 39.120355 -108.521900 36 4802ft 0kts
28-Oct-18 16:19 39.120355 -108.521900 36 4802ft 0kts
28-Oct-18 16:20 39.120355 -108.521900 36 4802ft 0kts
28-Oct-18 16:21 39.120355 -108.521900 36 4802ft 0kts
28-Oct-18 16:22 39.120355 -108.521900 36 4802ft 0kts
28-Oct-18 16:23 39.120355 -108.521900 36 4802ft 0kts
28-Oct-18 16:24 39.120355 -108.521900 36 4802ft 0kts
28-Oct-18 16:25 39.120604 -108.521838 286 4802ft 7kts
28-Oct-18 16:26 39.120626 -108.520184 28 4802ft 0kts
28-Oct-18 16:27 39.120626 -108.520184 28 4802ft 0kts
28-Oct-18 16:28 39.127607 -108.531427 306 4852ft 124kts
28-Oct-18 16:29 39.147776 -108.566364 299 6986ft 119kts
28-Oct-18 16:30 39.170050 -108.608893 299 8979ft 143kts
28-Oct-18 16:31 39.192297 -108.650077 296 11206ft 144kts
28-Oct-18 16:32 39.215145 -108.693694 295 13260ft 149kts
28-Oct-18 16:33 39.238332 -108.738022 295 15143ft 151kts
28-Oct-18 16:34 39.261893 -108.783139 294 16875ft 156kts
28-Oct-18 16:35 39.285862 -108.829046 294 19073ft 155kts
28-Oct-18 16:36 39.309856 -108.875117 294 21007ft 157kts
28-Oct-18 16:37 39.334271 -108.922051 294 22760ft 159kts
28-Oct-18 16:38 39.358935 -108.969532 294 24344ft 161kts
28-Oct-18 16:39 39.384195 -109.018238 294 26041ft 168kts
28-Oct-18 16:40 39.409693 -109.067442 294 28134ft 166kts
28-Oct-18 16:41 39.435607 -109.117563 294 29887ft 170kts
28-Oct-18 16:42 39.465584 -109.175788 296 30247ft 225kts
28-Oct-18 16:43 39.503408 -109.249122 296 30222ft 260kts
28-Oct-18 16:44 39.544705 -109.329441 297 30201ft 273kts
28-Oct-18 16:45 39.587202 -109.412333 297 30187ft 278kts
28-Oct-18 16:46 39.630035 -109.496110 297 30184ft 280kts
28-Oct-18 16:47 39.672975 -109.580322 297 30186ft 280kts
28-Oct-18 16:48 39.714770 -109.662513 296 30194ft 280kts
28-Oct-18 16:49 39.741127 -109.714440 296 30200ft 281kts
28-Oct-18 16:50 39.783433 -109.797976 296 30206ft 282kts
28-Oct-18 16:51 39.826488 -109.883230 296 30200ft 282kts
28-Oct-18 16:52 39.869518 -109.968657 296 30203ft 282kts
28-Oct-18 16:53 39.911554 -110.052342 296 30224ft 282kts
28-Oct-18 16:54 39.953829 -110.136725 296 30246ft 281kts
28-Oct-18 16:55 39.995906 -110.220941 296 30255ft 281kts
28-Oct-18 16:56 40.038464 -110.306348 296 30249ft 282kts
28-Oct-18 16:57 40.080898 -110.391734 296 30251ft 281kts
28-Oct-18 16:58 40.122629 -110.475933 296 30250ft 281kts
28-Oct-18 16:59 40.164948 -110.561551 296 30249ft 280kts
28-Oct-18 17:00 40.207054 -110.646974 296 30249ft 280kts
28-Oct-18 17:01 40.249270 -110.732862 296 30258ft 281kts
28-Oct-18 17:02 40.291304 -110.818606 296 30257ft 282kts
28-Oct-18 17:03 40.333486 -110.904868 295 30249ft 282kts
28-Oct-18 17:04 40.375546 -110.991117 295 30199ft 282kts
28-Oct-18 17:05 40.417468 -111.077331 294 30148ft 281kts
28-Oct-18 17:06 40.459233 -111.163526 294 30125ft 279kts
28-Oct-18 17:07 40.500668 -111.249238 293 30128ft 278kts
28-Oct-18 17:08 40.541910 -111.334788 294 30128ft 277kts
28-Oct-18 17:09 40.583091 -111.420433 294 30119ft 277kts
28-Oct-18 17:10 40.623479 -111.504661 294 30105ft 277kts
28-Oct-18 17:11 40.664299 -111.590020 294 30089ft 277kts
28-Oct-18 17:12 40.702658 -111.670460 293 30097ft 277kts
28-Oct-18 17:13 40.743642 -111.756631 293 30095ft 278kts
28-Oct-18 17:14 40.783858 -111.841423 293 30094ft 278kts
28-Oct-18 17:15 40.823591 -111.925424 293 30097ft 278kts
28-Oct-18 17:16 40.853747 -112.013904 274 30107ft 265kts
28-Oct-18 17:17 40.865385 -112.109764 273 30104ft 265kts
28-Oct-18 17:18 40.876698 -112.205879 273 30110ft 265kts
28-Oct-18 17:19 40.887875 -112.301703 274 30115ft 264kts
28-Oct-18 17:20 40.899003 -112.397785 273 30116ft 264kts
28-Oct-18 17:22 40.910033 -112.493832 273 30115ft 264kts
28-Oct-18 17:23 40.920969 -112.589715 273 30114ft 264kts
28-Oct-18 17:24 40.931754 -112.685040 273 30124ft 262kts
28-Oct-18 17:25 40.942463 -112.780311 273 30123ft 262kts
28-Oct-18 17:26 40.953060 -112.875431 273 30122ft 262kts
28-Oct-18 17:27 40.963627 -112.970959 273 30121ft 262kts
28-Oct-18 17:28 40.974092 -113.066296 273 30119ft 262kts
28-Oct-18 17:29 40.984440 -113.161343 273 30107ft 261kts
28-Oct-18 17:30 40.994673 -113.256069 272 30095ft 260kts
28-Oct-18 17:31 41.004807 -113.350615 272 30089ft 258kts
28-Oct-18 17:32 41.014788 -113.444480 272 30088ft 257kts
28-Oct-18 17:33 41.024665 -113.538125 272 30087ft 256kts
28-Oct-18 17:34 41.034405 -113.631201 272 30086ft 255kts
28-Oct-18 17:35 41.043966 -113.723306 271 30099ft 255kts
28-Oct-18 17:36 41.053529 -113.816088 271 30097ft 255kts
28-Oct-18 17:37 41.063020 -113.909015 271 30096ft 254kts
28-Oct-18 17:38 41.072335 -114.000978 271 30095ft 253kts
28-Oct-18 17:39 41.081583 -114.092989 271 30094ft 252kts
28-Oct-18 17:40 41.090753 -114.184985 271 30093ft 251kts
28-Oct-18 17:41 41.099776 -114.276276 271 30092ft 250kts
28-Oct-18 17:41 41.107168 -114.351534 270 30083ft 248kts
28-Oct-18 17:43 41.117434 -114.457049 270 30082ft 246kts
28-Oct-18 17:43 41.124627 -114.531620 270 30080ft 245kts
28-Oct-18 17:45 41.134647 -114.636311 270 30079ft 244kts
28-Oct-18 17:45 41.141681 -114.710477 270 30093ft 245kts
28-Oct-18 17:46 41.150154 -114.800474 270 30097ft 246kts
28-Oct-18 17:47 41.158554 -114.890405 270 30102ft 246kts
28-Oct-18 17:48 41.166902 -114.980480 270 30107ft 246kts
28-Oct-18 17:49 41.175158 -115.070285 269 30106ft 244kts
28-Oct-18 17:50 41.183268 -115.159432 268 30104ft 243kts
28-Oct-18 17:51 41.191295 -115.248616 268 30103ft 244kts
28-Oct-18 17:52 41.199279 -115.337925 268 30101ft 244kts
28-Oct-18 17:53 41.207178 -115.427126 268 30100ft 244kts
28-Oct-18 17:54 41.215036 -115.516656 268 30099ft 243kts
28-Oct-18 17:55 41.222785 -115.605764 268 30097ft 243kts
28-Oct-18 17:56 41.230496 -115.695280 267 30112ft 244kts
28-Oct-18 17:57 41.238163 -115.784909 267 30110ft 245kts
28-Oct-18 17:58 41.245773 -115.874823 267 30109ft 245kts
28-Oct-18 17:59 41.253304 -115.964717 267 30107ft 245kts
28-Oct-18 18:00 41.260769 -116.054641 267 30106ft 245kts
28-Oct-18 18:01 41.268155 -116.144462 267 30105ft 244kts
28-Oct-18 18:02 41.275464 -116.234230 267 30104ft 244kts
28-Oct-18 18:03 41.282694 -116.323894 267 30103ft 244kts
28-Oct-18 18:04 41.289860 -116.413655 267 30101ft 244kts
28-Oct-18 18:05 41.296951 -116.503330 267 30096ft 243kts
28-Oct-18 18:06 41.303924 -116.592461 267 30091ft 244kts
28-Oct-18 18:07 41.310857 -116.681957 267 30104ft 244kts
28-Oct-18 18:08 41.317758 -116.771956 267 30102ft 245kts
28-Oct-18 18:09 41.324592 -116.861998 267 30101ft 245kts
28-Oct-18 18:10 41.331389 -116.952366 266 30100ft 245kts
28-Oct-18 18:11 41.338045 -117.041775 265 30098ft 242kts
28-Oct-18 18:12 41.344576 -117.130711 265 30096ft 240kts
28-Oct-18 18:13 41.350986 -117.218924 265 30084ft 239kts
28-Oct-18 18:14 41.357291 -117.306809 265 30074ft 238kts
28-Oct-18 18:15 41.363536 -117.394462 265 30065ft 238kts
28-Oct-18 18:16 41.369688 -117.481808 265 30063ft 237kts
28-Oct-18 18:17 41.375765 -117.569163 265 30062ft 237kts
28-Oct-18 18:18 41.381759 -117.656274 264 30067ft 236kts
28-Oct-18 18:19 41.387728 -117.743871 264 30076ft 238kts
28-Oct-18 18:20 41.393635 -117.831596 265 30075ft 238kts
28-Oct-18 18:21 41.399492 -117.919558 265 30073ft 239kts
28-Oct-18 18:22 41.405289 -118.007578 264 30071ft 239kts
28-Oct-18 18:23 41.412388 -118.095685 266 30070ft 240kts
28-Oct-18 18:24 41.420007 -118.183840 266 30069ft 239kts
28-Oct-18 18:25 41.427551 -118.271831 266 30067ft 239kts
28-Oct-18 18:26 41.435004 -118.359492 266 30066ft 239kts
28-Oct-18 18:27 41.442392 -118.447179 266 30065ft 238kts
28-Oct-18 18:28 41.449716 -118.534988 266 30064ft 238kts
28-Oct-18 18:29 41.456962 -118.622553 266 30062ft 238kts
28-Oct-18 18:30 41.464078 -118.709596 265 30078ft 239kts
28-Oct-18 18:31 41.471253 -118.797944 265 30076ft 240kts
28-Oct-18 18:32 41.478310 -118.885919 266 30075ft 239kts
28-Oct-18 18:33 41.485297 -118.973686 266 30073ft 237kts
28-Oct-18 18:34 41.492144 -119.060545 266 30073ft 234kts
28-Oct-18 18:35 41.498856 -119.146580 266 30097ft 232kts
28-Oct-18 18:36 41.505436 -119.231698 266 30119ft 232kts
28-Oct-18 18:37 41.511974 -119.317192 266 30136ft 232kts
28-Oct-18 18:38 41.518447 -119.402591 266 30134ft 232kts
28-Oct-18 18:39 41.524852 -119.488042 265 30134ft 231kts
28-Oct-18 18:40 41.531169 -119.573084 266 30131ft 231kts
28-Oct-18 18:41 41.537381 -119.657773 265 30138ft 231kts
28-Oct-18 18:42 41.543613 -119.743365 265 30144ft 233kts
28-Oct-18 18:43 41.549803 -119.829201 265 30141ft 233kts
28-Oct-18 18:44 41.555939 -119.915334 265 30139ft 233kts
28-Oct-18 18:45 41.562001 -120.001437 265 30137ft 233kts
28-Oct-18 18:46 41.567991 -120.087385 265 30136ft 233kts
28-Oct-18 18:47 41.573921 -120.173427 265 30135ft 232kts
28-Oct-18 18:48 41.579760 -120.259067 265 30133ft 232kts
28-Oct-18 18:49 41.585530 -120.344574 265 30132ft 231kts
28-Oct-18 18:50 41.591250 -120.430097 265 30130ft 231kts
28-Oct-18 18:51 41.596860 -120.515329 265 30129ft 231kts
28-Oct-18 18:52 41.602412 -120.600602 265 30128ft 231kts
28-Oct-18 18:53 41.607896 -120.685766 265 30144ft 231kts
28-Oct-18 18:54 41.613382 -120.771760 265 30143ft 233kts
28-Oct-18 18:55 41.618734 -120.856839 265 30141ft 233kts
28-Oct-18 18:56 41.624078 -120.942783 265 30139ft 233kts
28-Oct-18 18:57 41.629384 -121.029058 264 30138ft 232kts
28-Oct-18 18:58 41.634586 -121.114841 265 30138ft 231kts
28-Oct-18 18:59 41.639715 -121.200479 265 30137ft 230kts
28-Oct-18 19:00 41.644741 -121.285431 265 30138ft 229kts
28-Oct-18 19:01 41.649712 -121.370457 265 30139ft 229kts
28-Oct-18 19:02 41.654595 -121.455243 265 30140ft 229kts
28-Oct-18 19:03 41.659428 -121.539985 265 30138ft 229kts
28-Oct-18 19:04 41.664155 -121.624299 265 30137ft 228kts
28-Oct-18 19:05 41.668844 -121.708772 264 30154ft 229kts
28-Oct-18 19:06 41.673451 -121.794054 267 30074ft 233kts
28-Oct-18 19:07 41.677934 -121.876102 267 28598ft 215kts
28-Oct-18 19:08 41.682144 -121.955219 268 27106ft 214kts
28-Oct-18 19:09 41.686347 -122.035244 268 25624ft 218kts
28-Oct-18 19:10 41.690565 -122.116589 269 24137ft 222kts
28-Oct-18 19:11 41.694820 -122.199703 269 22636ft 226kts
28-Oct-18 19:12 41.699076 -122.284168 270 21131ft 230kts
28-Oct-18 19:13 41.703342 -122.369959 270 19623ft 234kts
28-Oct-18 19:14 41.707565 -122.456167 271 18415ft 229kts
28-Oct-18 19:15 41.711661 -122.541123 271 17385ft 228kts
28-Oct-18 19:16 41.715684 -122.626061 271 16363ft 230kts
28-Oct-18 19:17 41.719674 -122.711541 271 15379ft 233kts
28-Oct-18 19:18 41.723670 -122.798496 271 14398ft 236kts
28-Oct-18 19:19 41.727627 -122.886058 271 13417ft 239kts
28-Oct-18 19:20 41.731594 -122.975046 271 12428ft 240kts
28-Oct-18 19:21 41.735363 -123.060943 270 12169ft 223kts
28-Oct-18 19:22 41.738843 -123.142258 269 12172ft 216kts
28-Oct-18 19:23 41.742203 -123.222232 269 12171ft 215kts
28-Oct-18 19:24 41.745502 -123.301796 269 12168ft 215kts
28-Oct-18 19:25 41.748753 -123.381467 269 12167ft 214kts
28-Oct-18 19:26 41.751941 -123.460943 269 12177ft 214kts
28-Oct-18 19:27 41.755102 -123.541298 269 12007ft 219kts
28-Oct-18 19:28 41.758249 -123.622218 269 11666ft 219kts
28-Oct-18 19:29 41.761354 -123.703637 268 10312ft 208kts
28-Oct-18 19:30 41.763121 -123.751062 267 10321ft 194kts
28-Oct-18 19:31 41.765465 -123.814646 267 10321ft 197kts
28-Oct-18 19:32 41.767598 -123.873210 267 10320ft 198kts
28-Oct-18 19:34 41.770272 -123.947753 267 9730ft 203kts
28-Oct-18 19:35 41.772445 -124.009437 267 8691ft 207kts
28-Oct-18 19:36 41.775112 -124.086573 267 6680ft 208kts
28-Oct-18 19:37 41.772115 -124.151640 235 5106ft 188kts
28-Oct-18 19:38 41.764682 -124.208339 287 3599ft 109kts
28-Oct-18 19:39 41.757473 -124.204849 29 2061ft 105kts
28-Oct-18 19:40 41.777925 -124.231538 313 114ft 106kts
28-Oct-18 19:41 41.784103 -124.240162 311 55ft 0kts
28-Oct-18 19:42 41.784103 -124.240162 311 55ft 0kts
28-Oct-18 19:43 41.784103 -124.240162 311 55ft 0kts
28-Oct-18 19:44 41.784103 -124.240162 311 55ft 0kts

Navigation Log

Ident Type
Flight plan parsing failed, navigation log unavailable